Time;durP1;ratioP1;P1;durP2;ratioP2;P2;SDS_P1;SDS_P2;PMS_P1;PMS_P2;Temp;Humidity;BMP_temperature;BMP_pressure;BME280_temperature;BME280_humidity;BME280_pressure;Samples;Min_cycle;Max_cycle;Signal;HPM_P1;HPM_P2
2021/12/17 00:02:03;;;;;;;4.40;3.22;;;;;;;2.04;78.97;98112.59;5154297;27;20062;-58
2021/12/17 00:04:26;;;;;;;5.60;3.78;;;;;;;2.05;78.29;98112.38;5152898;27;20041;-58
2021/12/17 00:06:57;;;;;;;4.35;3.28;;;;;;;2.09;78.02;98115.38;5154776;27;20043;-57
2021/12/17 00:09:23;;;;;;;5.82;3.70;;;;;;;2.00;78.31;98124.47;5153614;27;20094;-58
2021/12/17 00:11:49;;;;;;;5.15;3.08;;;;;;;1.88;78.80;98121.75;5115366;27;20049;-59
2021/12/17 00:14:24;;;;;;;4.20;2.90;;;;;;;1.90;78.91;98118.94;5143361;27;20412;-58
2021/12/17 00:16:51;;;;;;;7.07;4.38;;;;;;;1.85;79.50;98129.22;5154327;27;20039;-56
2021/12/17 00:49:34;;;;;;;9.43;5.78;;;;;;;1.72;80.59;98153.63;5152263;27;20476;-57
2021/12/17 00:52:03;;;;;;;7.50;4.18;;;;;;;1.59;81.27;98147.47;5135867;27;20050;-55
2021/12/17 00:54:40;;;;;;;9.20;5.20;;;;;;;1.62;81.22;98150.66;5117616;27;20030;-57
2021/12/17 00:57:27;;;;;;;7.47;4.65;;;;;;;1.63;81.68;98153.06;5153500;27;20420;-56
2021/12/17 00:59:54;;;;;;;5.90;3.83;;;;;;;1.59;81.72;98164.97;5131879;27;20074;-58
2021/12/17 01:02:29;;;;;;;9.00;4.40;;;;;;;1.60;81.06;98171.78;5135394;27;20040;-57
2021/12/17 01:04:59;;;;;;;5.60;3.72;;;;;;;1.67;80.94;98164.69;5151886;27;20487;-56
2021/12/17 01:07:29;;;;;;;6.05;3.95;;;;;;;1.65;81.29;98166.72;5153421;27;20484;-56
2021/12/17 01:09:58;;;;;;;6.90;4.15;;;;;;;1.65;81.50;98173.75;5152464;27;20062;-55
2021/12/17 01:12:25;;;;;;;9.35;4.65;;;;;;;1.73;81.59;98169.06;5152441;27;20448;-58
2021/12/17 01:15:23;;;;;;;6.93;4.38;;;;;;;1.85;81.06;98168.41;5117022;27;20043;-55
2021/12/17 01:18:21;;;;;;;10.10;6.03;;;;;;;1.88;80.72;98179.22;5143699;27;20050;-57
2021/12/17 01:23:59;;;;;;;8.05;5.13;;;;;;;1.80;80.65;98179.50;5151892;27;20078;-54
2021/12/17 01:35:47;;;;;;;8.93;6.13;;;;;;;1.73;80.76;98189.19;5169456;27;20054;-57
2021/12/17 01:41:43;;;;;;;10.45;5.75;;;;;;;1.80;80.78;98184.72;5156397;27;20047;-56
2021/12/17 01:44:01;;;;;;;9.48;5.90;;;;;;;1.82;80.70;98182.69;5138458;27;20074;-55
2021/12/17 01:46:31;;;;;;;9.48;5.75;;;;;;;1.78;80.21;98197.19;5133345;27;20068;-56
2021/12/17 02:00:00;;;;;;;10.07;5.80;;;;;;;1.97;78.79;98196.28;5147571;27;20180;-55
2021/12/17 02:02:29;;;;;;;9.02;5.38;;;;;;;1.89;78.91;98193.91;5154701;27;20056;-56
2021/12/17 02:04:55;;;;;;;10.57;5.47;;;;;;;1.81;78.00;98187.13;5155881;27;20050;-55
2021/12/17 02:07:20;;;;;;;7.80;4.45;;;;;;;1.81;77.94;98202.00;5100485;27;20035;-55
2021/12/17 02:32:03;;;;;;;10.50;4.40;;;;;;;1.70;78.01;98200.06;5155252;27;20035;-54
2021/12/17 02:37:03;;;;;;;9.07;5.38;;;;;;;1.76;78.37;98201.81;5154845;27;20505;-54
2021/12/17 02:47:36;;;;;;;8.70;4.85;;;;;;;1.89;77.56;98195.75;5143729;27;20053;-57
2021/12/17 02:50:02;;;;;;;8.05;4.80;;;;;;;1.85;77.45;98205.78;5132737;27;20092;-57
2021/12/17 02:52:30;;;;;;;8.90;4.55;;;;;;;1.87;77.45;98200.38;5131766;27;20061;-57
2021/12/17 02:54:57;;;;;;;5.75;3.72;;;;;;;1.77;76.86;98209.47;5119432;27;20035;-57
2021/12/17 02:57:24;;;;;;;6.45;3.90;;;;;;;1.77;76.97;98199.00;5139267;27;20051;-57
2021/12/17 02:59:50;;;;;;;7.00;4.05;;;;;;;1.70;76.19;98210.50;5116064;27;20450;-56
2021/12/17 03:02:16;;;;;;;5.60;3.17;;;;;;;1.49;76.78;98195.94;5151831;27;20069;-58
2021/12/17 03:04:42;;;;;;;5.75;3.85;;;;;;;1.37;77.73;98206.22;5136127;27;20117;-56
2021/12/17 03:07:13;;;;;;;9.38;4.15;;;;;;;1.27;77.80;98200.66;5147445;27;20043;-55
2021/12/17 03:12:46;;;;;;;8.43;5.50;;;;;;;1.05;78.48;98202.72;5106913;27;20067;-56
2021/12/17 03:23:32;;;;;;;7.68;3.55;;;;;;;0.76;78.92;98199.56;5155059;27;20381;-58
2021/12/17 03:26:03;;;;;;;4.22;2.63;;;;;;;0.84;78.55;98206.38;5153942;27;20038;-59
2021/12/17 03:28:29;;;;;;;5.00;3.05;;;;;;;0.94;78.25;98213.78;5120039;27;20048;-57
2021/12/17 03:30:55;;;;;;;7.15;3.42;;;;;;;1.03;77.92;98218.59;5136457;27;20050;-56
2021/12/17 03:33:22;;;;;;;8.85;4.82;;;;;;;1.13;77.90;98208.50;5153886;27;20031;-58
2021/12/17 03:35:51;;;;;;;7.35;4.75;;;;;;;1.22;77.53;98211.69;5154230;27;20043;-58
2021/12/17 03:38:18;;;;;;;8.80;4.07;;;;;;;1.28;77.48;98215.31;5153791;27;20047;-57
2021/12/17 03:40:46;;;;;;;6.07;3.95;;;;;;;1.35;77.19;98213.47;5154458;27;20046;-55
2021/12/17 03:43:29;;;;;;;7.97;3.97;;;;;;;1.34;77.53;98219.69;5154740;27;20044;-57
2021/12/17 03:45:56;;;;;;;5.47;3.47;;;;;;;1.34;76.83;98217.09;5154147;27;20390;-56
2021/12/17 03:48:24;;;;;;;6.80;3.40;;;;;;;1.34;76.71;98217.88;5153325;27;20147;-56
2021/12/17 03:50:51;;;;;;;5.15;2.95;;;;;;;1.34;76.62;98210.06;5152975;27;20043;-58
2021/12/17 03:53:17;;;;;;;5.47;2.92;;;;;;;1.43;76.70;98218.47;5153905;27;20045;-58
2021/12/17 03:55:43;;;;;;;4.25;2.30;;;;;;;1.38;75.22;98215.66;5153287;27;20130;-57
2021/12/17 03:58:08;;;;;;;4.20;2.80;;;;;;;1.32;75.50;98219.91;5153738;27;20046;-56
2021/12/17 04:00:39;;;;;;;2.95;1.95;;;;;;;1.25;75.15;98226.16;5136905;27;20039;-56
2021/12/17 04:03:05;;;;;;;2.75;1.80;;;;;;;1.31;74.55;98213.06;5154484;27;20053;-58
2021/12/17 04:05:41;;;;;;;3.22;1.80;;;;;;;1.31;74.32;98214.88;5153570;27;20125;-57
2021/12/17 04:08:33;;;;;;;3.22;1.88;;;;;;;1.32;74.32;98213.88;5153088;27;20240;-56
2021/12/17 04:11:18;;;;;;;3.33;2.42;;;;;;;1.27;75.04;98219.72;5152246;27;20138;-57
2021/12/17 04:13:53;;;;;;;5.18;3.17;;;;;;;1.26;75.43;98220.72;5153126;27;20047;-56
2021/12/17 04:16:23;;;;;;;2.47;1.80;;;;;;;1.30;75.67;98224.53;5133604;27;20043;-57
2021/12/17 04:18:49;;;;;;;3.55;2.40;;;;;;;1.37;75.67;98229.72;5132069;27;20049;-57
2021/12/17 04:21:15;;;;;;;3.58;2.35;;;;;;;1.42;76.01;98234.34;5115891;27;20134;-56
2021/12/17 04:23:45;;;;;;;1.88;1.50;;;;;;;1.32;75.38;98226.94;5152208;27;20091;-58
2021/12/17 04:26:12;;;;;;;3.17;2.47;;;;;;;1.35;75.48;98235.16;5131418;27;20051;-56
2021/12/17 04:28:43;;;;;;;5.15;3.03;;;;;;;1.31;75.47;98243.59;5152752;27;20074;-56
2021/12/17 04:31:10;;;;;;;3.58;2.08;;;;;;;1.26;75.01;98236.38;5136168;27;20096;-57
2021/12/17 04:33:40;;;;;;;3.33;2.28;;;;;;;1.31;75.15;98241.00;5152671;27;20465;-58
2021/12/17 04:36:07;;;;;;;3.13;2.03;;;;;;;1.31;75.53;98248.81;5152849;27;20053;-57
2021/12/17 04:38:33;;;;;;;3.05;1.80;;;;;;;1.12;75.22;98221.78;5154037;27;20472;-57
2021/12/17 04:41:27;;;;;;;3.25;1.88;;;;;;;1.26;75.35;98262.47;5152773;27;20069;-58
2021/12/17 04:44:07;;;;;;;3.85;2.42;;;;;;;1.26;75.34;98256.47;5152389;27;20074;-58
2021/12/17 04:46:43;;;;;;;3.38;2.00;;;;;;;1.22;76.31;98253.47;5135517;27;20078;-55
2021/12/17 04:59:57;;;;;;;4.57;2.20;;;;;;;1.06;75.05;98272.16;5152510;27;20046;-53
2021/12/17 05:02:23;;;;;;;4.05;2.10;;;;;;;1.05;75.37;98273.19;5151575;27;20066;-55
2021/12/17 05:04:55;;;;;;;3.42;2.17;;;;;;;1.04;75.29;98263.75;5129077;27;20047;-56
2021/12/17 05:07:24;;;;;;;2.95;1.92;;;;;;;1.06;75.88;98275.59;5137544;27;20042;-55
2021/12/17 05:10:02;;;;;;;2.95;2.15;;;;;;;1.13;75.80;98270.34;5153136;27;20340;-57
2021/12/17 05:20:51;;;;;;;5.40;2.78;;;;;;;0.89;77.36;98271.81;5152337;27;20043;-55
2021/12/17 05:23:22;;;;;;;8.07;3.70;;;;;;;0.83;78.53;98262.19;5131793;27;20077;-53
2021/12/17 05:25:49;;;;;;;3.30;2.55;;;;;;;0.88;77.67;98270.19;5148826;27;20062;-55
2021/12/17 05:28:15;;;;;;;5.38;3.25;;;;;;;0.95;77.74;98278.03;5150511;27;20035;-54
2021/12/17 05:30:46;;;;;;;5.22;3.35;;;;;;;0.96;77.42;98277.00;5151575;27;20095;-53
2021/12/17 05:33:13;;;;;;;6.60;3.38;;;;;;;0.96;77.17;98279.63;5151184;27;20045;-55
2021/12/17 05:35:40;;;;;;;7.63;3.92;;;;;;;0.92;77.62;98281.03;5151157;27;20055;-53
2021/12/17 05:38:10;;;;;;;8.73;4.53;;;;;;;0.97;77.21;98283.81;5152408;27;20038;-55
2021/12/17 05:40:36;;;;;;;10.30;4.55;;;;;;;1.00;77.50;98288.63;5153343;27;20038;-55
2021/12/17 05:43:05;;;;;;;9.30;4.60;;;;;;;1.04;77.08;98285.44;5150439;27;20540;-52
2021/12/17 05:45:47;;;;;;;7.47;3.92;;;;;;;1.09;77.22;98293.47;5135257;27;20061;-53
2021/12/17 05:48:14;;;;;;;5.82;3.38;;;;;;;1.16;77.26;98292.66;5151324;27;20553;-54
2021/12/17 05:50:42;;;;;;;6.60;3.85;;;;;;;1.25;77.31;98294.84;5151338;27;20415;-56
2021/12/17 05:53:08;;;;;;;3.72;2.80;;;;;;;1.36;76.51;98288.19;5131578;27;20081;-54
2021/12/17 05:55:34;;;;;;;5.32;3.15;;;;;;;1.30;76.63;98296.84;5150816;27;20046;-56
2021/12/17 05:58:01;;;;;;;7.90;4.18;;;;;;;1.33;77.22;98305.06;5152741;27;20038;-55
2021/12/17 06:00:31;;;;;;;6.85;3.80;;;;;;;1.35;77.79;98305.66;5150844;27;20555;-58
2021/12/17 06:03:04;;;;;;;5.80;3.45;;;;;;;1.30;77.53;98308.09;5130334;27;20054;-56
2021/12/17 06:05:52;;;;;;;8.00;3.75;;;;;;;1.30;77.68;98307.28;5147634;27;20087;-57
2021/12/17 06:08:18;;;;;;;7.78;3.75;;;;;;;1.32;78.03;98313.09;5111816;27;20199;-56
2021/12/17 06:10:44;;;;;;;6.18;3.80;;;;;;;1.30;77.56;98310.69;5127344;27;20476;-57
2021/12/17 06:13:11;;;;;;;7.05;4.05;;;;;;;1.24;77.23;98321.16;5113188;27;20031;-57
2021/12/17 06:15:37;;;;;;;5.72;3.70;;;;;;;1.23;77.13;98316.91;5128049;27;20051;-54
2021/12/17 06:18:03;;;;;;;6.07;3.80;;;;;;;1.14;78.04;98322.34;5124861;27;20035;-57
2021/12/17 06:20:28;;;;;;;6.95;4.03;;;;;;;1.18;77.75;98319.31;5110649;27;20114;-54
2021/12/17 06:22:58;;;;;;;8.00;4.35;;;;;;;1.15;77.69;98325.78;5127157;27;20034;-57
2021/12/17 06:25:24;;;;;;;7.18;4.63;;;;;;;1.14;77.52;98324.94;5126833;27;20100;-54
2021/12/17 06:27:51;;;;;;;6.88;4.18;;;;;;;1.07;77.54;98325.97;5109277;27;20042;-54
2021/12/17 06:30:17;;;;;;;5.93;3.78;;;;;;;1.06;77.86;98340.84;5145557;27;20058;-56
2021/12/17 06:32:44;;;;;;;5.90;4.38;;;;;;;1.12;77.22;98336.63;5145450;27;20043;-58
2021/12/17 06:35:11;;;;;;;5.40;4.07;;;;;;;1.00;77.57;98346.88;5147605;27;20370;-56
2021/12/17 06:37:40;;;;;;;5.53;3.67;;;;;;;1.04;77.84;98342.84;5143052;27;20532;-56
2021/12/17 06:40:07;;;;;;;5.65;4.03;;;;;;;1.09;77.57;98344.88;5147306;27;20590;-57
2021/12/17 06:42:34;;;;;;;7.32;4.97;;;;;;;1.18;77.65;98338.44;5113163;27;20104;-55
2021/12/17 06:45:05;;;;;;;4.28;3.75;;;;;;;1.17;77.06;98346.44;5131248;27;20047;-57
2021/12/17 06:47:34;;;;;;;15.40;4.82;;;;;;;1.21;77.16;98347.66;5129242;27;20122;-58
2021/12/17 07:33:23;;;;;;;11.57;7.00;;;;;;;2.11;72.92;98387.81;5152129;27;20495;-56
2021/12/17 07:36:18;;;;;;;9.07;4.32;;;;;;;2.03;72.66;98388.88;5134931;27;20054;-55
2021/12/17 07:38:49;;;;;;;10.75;5.32;;;;;;;2.01;72.90;98385.66;5151174;27;20047;-56
2021/12/17 07:41:34;;;;;;;6.90;3.85;;;;;;;1.80;73.26;98388.53;5151290;27;20049;-56
2021/12/17 07:44:13;;;;;;;7.10;4.57;;;;;;;1.81;73.10;98390.13;5150670;27;20042;-56
2021/12/17 07:46:52;;;;;;;12.38;5.45;;;;;;;2.04;73.57;98395.69;5148773;27;20047;-57
2021/12/17 07:49:18;;;;;;;10.15;5.68;;;;;;;2.08;73.04;98395.28;5151796;27;20050;-57
2021/12/17 07:51:43;;;;;;;10.43;5.65;;;;;;;2.14;72.43;98404.91;5151621;27;20069;-59
2021/12/17 07:54:16;;;;;;;14.27;5.55;;;;;;;2.19;72.32;98400.66;5150506;27;20077;-57
2021/12/17 07:56:42;;;;;;;10.70;4.85;;;;;;;2.19;71.79;98398.06;5150603;27;20051;-57
2021/12/17 07:59:17;;;;;;;11.05;5.03;;;;;;;2.15;71.94;98404.72;5136115;27;20070;-58
2021/12/17 08:01:44;;;;;;;7.30;4.70;;;;;;;2.21;72.88;98405.72;5151137;27;20039;-55
2021/12/17 08:04:11;;;;;;;10.57;4.88;;;;;;;2.15;72.62;98404.72;5150652;27;20046;-56
2021/12/17 08:06:59;;;;;;;8.48;5.05;;;;;;;2.24;72.47;98407.91;5150776;27;20074;-58
2021/12/17 08:09:28;;;;;;;10.63;5.45;;;;;;;2.26;72.09;98403.25;5150345;27;20034;-57
2021/12/17 08:11:56;;;;;;;10.30;5.25;;;;;;;2.31;72.19;98413.09;5149027;27;20091;-57
2021/12/17 08:14:28;;;;;;;9.43;5.05;;;;;;;2.27;72.32;98412.72;5150048;27;20081;-57
2021/12/17 08:28:03;;;;;;;7.10;4.55;;;;;;;2.50;71.48;98417.44;5151727;27;20054;-57
2021/12/17 08:30:38;;;;;;;9.77;5.82;;;;;;;2.59;71.74;98421.44;5150829;27;20042;-56
2021/12/17 08:33:08;;;;;;;10.65;5.30;;;;;;;2.66;71.52;98411.72;5150789;27;20057;-54
2021/12/17 08:35:35;;;;;;;11.18;5.95;;;;;;;2.71;71.16;98424.19;5151318;27;20039;-55
2021/12/17 08:38:07;;;;;;;11.38;6.15;;;;;;;2.83;71.23;98421.69;5147921;27;20038;-57
2021/12/17 08:40:34;;;;;;;9.38;5.20;;;;;;;2.86;70.80;98416.84;5151557;27;20100;-57
2021/12/17 08:43:01;;;;;;;7.05;4.60;;;;;;;2.83;70.55;98413.84;5152172;27;20058;-56
2021/12/17 08:45:29;;;;;;;11.65;5.50;;;;;;;2.95;70.51;98415.56;5150384;27;20035;-58
2021/12/17 08:48:18;;;;;;;10.10;5.32;;;;;;;2.81;70.90;98416.66;5130606;27;20520;-56
2021/12/17 08:50:54;;;;;;;10.55;5.40;;;;;;;2.86;70.91;98416.03;5131376;27;20168;-58
2021/12/17 08:53:20;;;;;;;9.55;6.30;;;;;;;2.75;71.28;98416.72;5130307;27;20149;-58
2021/12/17 08:55:46;;;;;;;8.32;5.68;;;;;;;2.68;71.74;98414.94;5130999;27;20034;-56
2021/12/17 08:58:14;;;;;;;10.95;5.65;;;;;;;2.73;72.34;98416.91;5131371;27;20058;-57
2021/12/17 09:00:42;;;;;;;8.77;4.85;;;;;;;2.67;72.22;98423.78;5129151;27;20503;-56
2021/12/17 09:03:09;;;;;;;11.13;6.47;;;;;;;2.76;72.49;98421.72;5129712;27;20064;-56
2021/12/17 09:05:44;;;;;;;9.82;4.97;;;;;;;2.78;72.48;98432.78;5147945;27;20053;-58
2021/12/17 09:08:13;;;;;;;6.32;4.28;;;;;;;2.69;72.76;98421.75;5146902;27;20555;-56
2021/12/17 09:10:55;;;;;;;9.93;4.35;;;;;;;2.62;73.16;98428.84;5129727;27;20049;-57
2021/12/17 09:13:27;;;;;;;8.20;4.15;;;;;;;2.48;74.09;98430.72;5131061;27;20058;-58
2021/12/17 09:15:59;;;;;;;6.55;3.45;;;;;;;2.54;73.62;98434.31;5131722;27;20042;-59
2021/12/17 09:18:34;;;;;;;3.67;2.45;;;;;;;2.45;72.91;98425.13;5132648;27;20145;-58
2021/12/17 09:21:30;;;;;;;4.28;2.80;;;;;;;2.46;73.19;98429.31;5141910;27;20046;-58
2021/12/17 09:24:03;;;;;;;5.45;3.28;;;;;;;2.53;73.37;98437.13;5150945;27;20043;-55
2021/12/17 09:26:40;;;;;;;7.07;4.40;;;;;;;2.66;73.37;98435.25;5135171;27;20039;-56
2021/12/17 09:29:07;;;;;;;7.57;4.28;;;;;;;2.79;72.53;98438.81;5150023;27;20082;-57
2021/12/17 09:31:33;;;;;;;11.68;5.63;;;;;;;2.90;72.82;98435.53;5150837;27;20503;-57
2021/12/17 09:33:59;;;;;;;10.73;5.30;;;;;;;3.05;71.09;98441.28;5151355;27;20500;-55
2021/12/17 09:36:25;;;;;;;13.45;5.57;;;;;;;3.13;71.20;98435.00;5149721;27;20152;-56
2021/12/17 09:38:52;;;;;;;10.80;7.85;;;;;;;3.25;71.70;98442.97;5150225;27;20054;-58
2021/12/17 09:41:22;;;;;;;17.63;8.57;;;;;;;3.29;71.09;98438.88;5133680;27;20415;-57
2021/12/17 09:43:49;;;;;;;21.25;9.05;;;;;;;3.34;71.72;98442.47;5150287;27;20043;-56
2021/12/17 09:46:15;;;;;;;9.48;5.60;;;;;;;3.37;69.88;98451.72;5149512;27;20053;-58
2021/12/17 09:48:41;;;;;;;9.70;5.32;;;;;;;3.38;69.82;98448.91;5150442;27;20434;-57
2021/12/17 09:51:08;;;;;;;9.40;5.43;;;;;;;3.38;69.46;98442.84;5149151;27;20411;-57
2021/12/17 09:53:34;;;;;;;13.10;7.05;;;;;;;3.31;69.11;98448.13;5151393;27;20597;-58
2021/12/17 09:56:00;;;;;;;15.43;7.72;;;;;;;3.32;69.15;98449.75;5150247;27;20103;-55
2021/12/17 09:58:27;;;;;;;8.18;5.07;;;;;;;3.25;68.06;98454.22;5150431;27;20563;-58
2021/12/17 10:00:53;;;;;;;9.75;6.00;;;;;;;3.23;68.16;98458.06;5152313;27;20076;-58
2021/12/17 10:03:20;;;;;;;8.05;5.70;;;;;;;3.22;68.58;98456.47;5149908;27;20046;-60
2021/12/17 10:05:45;;;;;;;8.98;5.70;;;;;;;3.28;68.57;98461.66;5149840;27;20570;-55
2021/12/17 10:08:17;;;;;;;10.07;6.22;;;;;;;3.15;68.47;98456.53;5149996;27;20042;-55
2021/12/17 10:11:04;;;;;;;6.47;4.57;;;;;;;3.10;68.15;98461.59;5144965;27;20035;-57
2021/12/17 10:13:31;;;;;;;14.10;7.43;;;;;;;3.11;67.99;98460.56;5149504;27;20062;-57
2021/12/17 10:16:07;;;;;;;7.97;4.53;;;;;;;3.00;68.68;98462.06;5146952;27;20047;-53
2021/12/17 10:18:41;;;;;;;7.40;4.18;;;;;;;2.95;68.66;98461.88;5146738;27;20130;-57
2021/12/17 10:21:12;;;;;;;7.00;4.72;;;;;;;3.00;68.90;98456.84;5149110;27;20047;-55
2021/12/17 10:23:41;;;;;;;12.00;6.75;;;;;;;3.08;69.04;98461.78;5152069;27;20071;-58
2021/12/17 10:26:11;;;;;;;9.70;6.22;;;;;;;3.06;68.43;98455.97;5150622;27;20038;-58
2021/12/17 10:28:37;;;;;;;10.38;6.00;;;;;;;3.03;68.44;98469.50;5153633;27;20074;-57
2021/12/17 10:31:03;;;;;;;5.38;4.30;;;;;;;3.06;68.62;98466.47;5152677;27;20065;-57
2021/12/17 10:33:29;;;;;;;9.15;5.28;;;;;;;3.17;68.61;98462.34;5153737;27;20411;-58
2021/12/17 10:36:00;;;;;;;6.18;4.43;;;;;;;3.06;68.61;98463.84;5152944;27;20054;-55
2021/12/17 10:38:26;;;;;;;8.65;6.25;;;;;;;3.12;68.48;98463.00;5141757;27;20072;-57
2021/12/17 10:43:34;;;;;;;4.55;3.47;;;;;;;2.94;68.26;98465.50;5154301;27;20041;-57
2021/12/17 10:46:09;;;;;;;6.53;3.65;;;;;;;2.98;68.30;98468.53;5153866;27;20050;-54
2021/12/17 10:51:15;;;;;;;6.10;3.80;;;;;;;2.99;69.02;98470.13;5153260;27;20046;-58
2021/12/17 10:54:03;;;;;;;6.60;4.80;;;;;;;2.94;69.18;98478.59;5147512;27;20050;-56
2021/12/17 10:56:35;;;;;;;9.32;5.30;;;;;;;2.93;69.58;98477.78;5150583;27;20051;-56
2021/12/17 10:59:11;;;;;;;6.47;3.92;;;;;;;2.92;69.16;98481.44;5153077;27;20046;-54
2021/12/17 11:01:48;;;;;;;9.02;3.63;;;;;;;2.86;69.71;98479.66;5110277;27;20038;-56
2021/12/17 11:04:24;;;;;;;7.07;3.88;;;;;;;2.98;69.57;98489.47;5128877;27;20050;-55
2021/12/17 11:07:00;;;;;;;5.93;3.75;;;;;;;3.01;69.28;98486.44;5125112;27;20047;-58
2021/12/17 11:09:38;;;;;;;6.03;4.28;;;;;;;3.02;69.22;98491.44;5134746;27;20093;-57
2021/12/17 11:12:12;;;;;;;7.85;3.78;;;;;;;3.02;69.55;98490.63;5150010;27;20042;-56
2021/12/17 11:14:41;;;;;;;6.35;3.80;;;;;;;3.07;69.33;98490.81;5149889;27;20047;-58
2021/12/17 11:17:12;;;;;;;5.97;3.90;;;;;;;3.03;68.82;98498.31;5150740;27;20042;-57
2021/12/17 11:19:41;;;;;;;;;;;;;;;3.09;69.11;98494.00;5151215;27;20039;-57
2021/12/17 11:22:07;;;;;;;7.78;5.10;;;;;;;2.95;69.12;98501.16;5153017;27;19919;-57
2021/12/17 11:24:34;;;;;;;6.72;4.75;;;;;;;2.84;69.65;98504.44;5151073;27;20433;-59
2021/12/17 11:27:05;;;;;;;8.75;5.07;;;;;;;2.85;69.46;98498.97;5152612;27;20042;-57
2021/12/17 11:29:31;;;;;;;9.80;6.20;;;;;;;2.88;70.07;98501.19;5150563;27;20091;-57
2021/12/17 11:32:03;;;;;;;12.02;6.32;;;;;;;2.88;69.37;98500.38;5131839;27;20034;-55
2021/12/17 11:34:30;;;;;;;9.75;6.68;;;;;;;2.89;69.42;98505.41;5151055;27;20047;-56
2021/12/17 11:36:58;;;;;;;10.15;6.68;;;;;;;2.92;69.05;98512.06;5149971;27;20070;-58
2021/12/17 11:39:30;;;;;;;8.90;5.93;;;;;;;2.93;68.72;98516.25;5149871;27;20807;-53
2021/12/17 11:42:18;;;;;;;11.80;7.50;;;;;;;2.88;69.04;98516.06;5141829;27;20376;-55
2021/12/17 11:44:53;;;;;;;11.07;7.22;;;;;;;2.75;69.20;98506.47;5132987;27;20059;-55
2021/12/17 11:47:20;;;;;;;8.77;4.93;;;;;;;2.69;69.60;98510.72;5150722;27;20098;-51
2021/12/17 11:49:49;;;;;;;5.70;4.25;;;;;;;2.71;69.68;98513.94;5153010;27;20431;-54
2021/12/17 11:52:38;;;;;;;7.70;3.65;;;;;;;2.59;69.53;98517.41;5153557;27;20049;-54
2021/12/17 11:55:26;;;;;;;5.50;3.70;;;;;;;2.71;69.71;98521.81;5152789;27;20538;-56
2021/12/17 11:57:57;;;;;;;8.60;4.90;;;;;;;2.70;69.68;98522.00;5130280;27;20043;-54
2021/12/17 12:00:30;;;;;;;8.57;6.10;;;;;;;2.65;70.23;98532.31;5132115;27;20047;-54
2021/12/17 12:03:16;;;;;;;9.20;6.93;;;;;;;2.71;70.02;98537.50;5131302;27;20043;-54
2021/12/17 12:05:44;;;;;;;12.15;7.28;;;;;;;2.59;70.38;98523.47;5146665;27;20047;-59
2021/12/17 12:08:49;;;;;;;9.88;5.95;;;;;;;2.54;70.52;98533.75;5150794;27;20091;-56
2021/12/17 12:11:36;;;;;;;8.27;5.57;;;;;;;2.45;71.16;98527.94;5149422;27;20489;-57
2021/12/17 12:14:02;;;;;;;9.52;6.50;;;;;;;2.48;71.29;98526.72;5151903;27;20042;-57
2021/12/17 12:16:30;;;;;;;9.30;4.78;;;;;;;2.52;71.22;98533.13;5148505;27;20045;-58
2021/12/17 12:19:07;;;;;;;7.72;4.70;;;;;;;2.46;71.18;98539.19;5146984;27;20070;-58
2021/12/17 12:21:37;;;;;;;10.00;6.03;;;;;;;2.34;71.64;98533.78;5107151;27;20031;-59
2021/12/17 12:24:16;;;;;;;14.32;6.97;;;;;;;2.53;71.53;98541.78;5147521;27;20415;-57
2021/12/17 12:26:49;;;;;;;12.05;6.75;;;;;;;2.44;71.49;98544.63;5148543;27;20034;-57
2021/12/17 12:29:27;;;;;;;15.57;8.27;;;;;;;2.43;72.46;98547.44;5147814;27;20504;-58
2021/12/17 12:31:58;;;;;;;14.77;7.35;;;;;;;2.38;72.50;98557.72;5148683;27;20527;-57
2021/12/17 12:34:34;;;;;;;12.65;6.65;;;;;;;2.19;72.58;98564.59;5149223;27;20372;-56
2021/12/17 12:37:21;;;;;;;8.20;4.63;;;;;;;1.99;73.27;98569.84;5149320;27;20578;-56
2021/12/17 12:39:49;;;;;;;11.32;5.55;;;;;;;2.07;73.60;98567.03;5148773;27;20885;-56
2021/12/17 12:42:19;;;;;;;9.32;5.47;;;;;;;2.07;73.26;98566.22;5148254;27;20039;-55
2021/12/17 12:44:44;;;;;;;6.80;4.30;;;;;;;2.01;73.44;98580.91;5150036;27;20480;-55
2021/12/17 12:47:13;;;;;;;6.93;3.92;;;;;;;1.89;73.85;98585.94;5148209;27;20038;-58
2021/12/17 12:49:47;;;;;;;3.28;2.22;;;;;;;1.78;73.71;98594.34;5147812;27;20400;-56
2021/12/17 12:52:40;;;;;;;2.78;2.22;;;;;;;1.55;73.42;98595.53;5146850;27;20121;-55
2021/12/17 12:55:16;;;;;;;2.78;1.90;;;;;;;1.26;73.62;98588.03;5144508;27;20134;-58
2021/12/17 12:57:51;;;;;;;5.75;3.55;;;;;;;1.20;74.37;98587.00;5149544;27;20149;-57
2021/12/17 13:00:22;;;;;;;2.33;1.50;;;;;;;1.24;73.68;98588.25;5149333;27;20069;-58
2021/12/17 13:02:57;;;;;;;3.35;1.70;;;;;;;1.10;74.11;98589.19;5146891;27;20046;-57
2021/12/17 13:05:25;;;;;;;3.40;1.52;;;;;;;1.08;73.94;98586.75;5144761;27;20133;-56
2021/12/17 13:07:59;;;;;;;1.40;1.30;;;;;;;1.07;73.25;98590.38;5148442;27;20039;-56
2021/12/17 13:10:31;;;;;;;1.90;1.40;;;;;;;1.03;72.08;98591.78;5146779;27;20042;-53
2021/12/17 13:13:35;;;;;;;1.70;1.50;;;;;;;0.99;71.33;98589.75;5150461;27;20472;-56
2021/12/17 13:16:14;;;;;;;4.18;1.75;;;;;;;1.09;71.43;98591.00;5153038;27;20063;-58
2021/12/17 13:24:07;;;;;;;3.63;2.15;;;;;;;1.05;73.54;98604.63;5153264;27;20527;-59
2021/12/17 13:26:33;;;;;;;4.05;2.08;;;;;;;1.01;73.23;98604.22;5153607;27;20496;-55
2021/12/17 13:29:06;;;;;;;2.05;1.65;;;;;;;1.10;74.31;98603.03;5152826;27;20042;-56
2021/12/17 13:31:41;;;;;;;2.78;2.42;;;;;;;1.08;74.08;98614.69;5150424;27;20487;-56
2021/12/17 13:34:27;;;;;;;3.65;2.60;;;;;;;1.07;73.06;98615.69;5152024;27;20050;-55
2021/12/17 13:37:16;;;;;;;4.75;3.15;;;;;;;1.08;73.30;98612.88;5153180;27;20433;-56
2021/12/17 13:39:58;;;;;;;8.55;4.45;;;;;;;1.07;72.80;98613.88;5117469;27;20092;-56
2021/12/17 13:42:26;;;;;;;4.60;3.40;;;;;;;1.14;72.23;98613.91;5153138;27;20526;-57
2021/12/17 13:44:54;;;;;;;9.52;4.95;;;;;;;1.13;72.51;98627.97;5151928;27;20122;-57
2021/12/17 13:47:34;;;;;;;15.23;3.97;;;;;;;1.11;72.33;98630.75;5151119;27;20045;-57
2021/12/17 13:50:01;;;;;;;;;;;;;;;1.07;72.88;98629.53;5152804;27;20527;-55
2021/12/17 13:52:31;;;;;;;3.63;2.58;;;;;;;1.05;72.59;98631.53;5134646;27;19963;-56
2021/12/17 13:54:58;;;;;;;3.55;2.92;;;;;;;1.05;72.81;98623.69;5151176;27;20452;-55
2021/12/17 13:57:26;;;;;;;2.75;1.75;;;;;;;1.07;71.34;98621.72;5124416;27;20059;-58
2021/12/17 13:59:53;;;;;;;4.20;2.13;;;;;;;1.08;71.71;98615.47;5128504;27;20142;-56
2021/12/17 14:02:22;;;;;;;1.40;1.10;;;;;;;1.13;68.89;98630.56;5128547;28;20043;-56
2021/12/17 14:05:06;;;;;;;1.55;1.45;;;;;;;1.23;68.94;98632.81;5129364;27;20051;-55
2021/12/17 14:07:34;;;;;;;1.25;1.15;;;;;;;1.12;68.27;98616.72;5141096;27;20043;-56
2021/12/17 14:10:05;;;;;;;1.83;1.52;;;;;;;1.25;69.25;98642.06;5151423;27;20046;-56
2021/12/17 14:12:33;;;;;;;4.78;3.10;;;;;;;1.30;69.66;98636.25;5149139;27;20042;-56
2021/12/17 14:15:05;;;;;;;4.85;3.50;;;;;;;1.32;69.77;98640.28;5129778;27;20438;-59
2021/12/17 14:17:42;;;;;;;5.80;2.70;;;;;;;1.32;69.84;98647.28;5148145;27;20062;-55
2021/12/17 14:20:11;;;;;;;3.28;2.50;;;;;;;1.39;69.66;98644.72;5130223;27;20146;-56
2021/12/17 14:22:40;;;;;;;3.17;2.75;;;;;;;1.43;69.62;98649.34;5148552;27;20046;-54
2021/12/17 14:25:35;;;;;;;35.67;14.13;;;;;;;1.42;69.72;98652.97;5146272;27;20406;-56
2021/12/17 14:28:09;;;;;;;5.15;2.70;;;;;;;1.36;69.80;98645.91;5128116;27;20122;-59
2021/12/17 14:30:35;;;;;;;5.13;3.42;;;;;;;1.31;70.05;98646.50;5127424;27;20051;-59
2021/12/17 14:33:16;;;;;;;5.32;3.40;;;;;;;1.29;70.21;98648.47;5127843;27;20037;-60
2021/12/17 14:35:47;;;;;;;6.35;2.72;;;;;;;1.34;70.42;98645.31;5141759;27;20035;-59
2021/12/17 14:38:14;;;;;;;3.15;2.33;;;;;;;1.43;68.88;98648.53;5148632;27;20122;-57
2021/12/17 14:40:48;;;;;;;4.45;2.50;;;;;;;1.49;68.69;98653.78;5146356;27;20129;-58
2021/12/17 14:43:26;;;;;;;7.15;3.05;;;;;;;1.43;69.28;98653.78;5147681;27;20135;-59
2021/12/17 14:49:30;;;;;;;3.15;2.40;;;;;;;1.46;68.21;98648.16;5144857;27;20107;-57
2021/12/17 15:00:23;;;;;;;5.25;3.40;;;;;;;1.61;67.93;98671.50;5125608;27;20059;-56
2021/12/17 15:02:53;;;;;;;4.40;3.10;;;;;;;1.58;67.67;98678.72;5126467;27;20389;-55
2021/12/17 15:05:21;;;;;;;3.65;2.20;;;;;;;1.59;67.72;98685.56;5124677;28;20485;-58
2021/12/17 15:07:48;;;;;;;3.60;2.20;;;;;;;1.48;68.32;98685.34;5129222;27;20122;-59
2021/12/17 15:10:15;;;;;;;2.50;1.58;;;;;;;1.36;68.70;98693.72;5131175;27;20136;-59
2021/12/17 15:12:41;;;;;;;5.13;2.25;;;;;;;1.27;70.10;98702.72;5141700;27;20083;-57
2021/12/17 15:15:20;;;;;;;3.97;2.67;;;;;;;1.28;72.73;98695.69;5153234;27;20042;-57
2021/12/17 15:17:47;;;;;;;6.32;2.60;;;;;;;1.25;73.25;98699.50;5153025;27;20034;-57
2021/12/17 15:20:15;;;;;;;4.60;2.58;;;;;;;1.11;73.37;98710.88;5154194;27;20078;-58